レゾリュート の空港の天気 - METARとTAF

レゾリュート空港 ( CYRB / YRB ) - カナダ ヌナブト準州レゾリュート
飛行場実況気象(Metar)
観測時間02/17 17:00 CST (02/17 23:00 UTC)
風向・風速北西 6m/s
視程10km以上
天気現象細氷
なし
気温-36℃
湿度67%
気圧1030.6hPa
METARCYRB 172300Z 32012KT 15SM IC SKC M36/M40 A3039 RMK SLP306
過去の天気等 Google飛行場航空写真 Wunderground天気予報

過去48時間のMETAR

飛行場予報(TAF)
発表時間: 2/17 11:39 CST (2/17 17:39 UTC)
予報対象時間: 17日12時 CST ~ 18日12時 CST
風向・風速西北西 6m/s 瞬間風速 11m/s
視程10km以上
天気現象細氷
なし
17日13時 CST ~ 17日15時 CST に徐々に
風向・風速北 6m/s 瞬間風速 11m/s
17日23時 CST ~ 18日1時 CST に徐々に
風向・風速北 5m/s
TAF CYRB 171739Z 1718/1818 30012G22KT P6SM IC SKC
BECMG 1719/1721 35012G22KT
BECMG 1805/1807 35010KT RMK NXT FCST BY 180000Z